Terminal Aerodrome Forecast
Issued by NWS

Home | Current Version | Previous Version | Text Only | Print | Product List | Glossary On
Versions: 1 2 3 4 5 6 7 8 9 10 11 12 13 14 15 16 17 18
000
FTUS44 KBMX 012331
TAFEET
TAF
KEET 012331Z 0200/0224 22006KT 4SM SHRA VCTS BKN035CB
      TEMPO 0200/0201 21010G20KT 2SM TSRA BKN025CB
     FM020230 VRB03KT P6SM BKN035
     FM020800 VRB03KT P6SM BKN015
      TEMPO 0211/0214 6SM BR OVC007
     FM021700 33005KT P6SM SCT250=

USA.gov is the U.S. government's official web portal to all federal, state and local government web resources and services.